METAR Data
IDs: Format: Raw Decoded Include TAF

Data at: 1219 UTC 23 Mar 2019

METAR for:PACD (Cold Bay Arpt, AK, US)
Text:PACD 231207Z AUTO 25018KT 2SM UP BR OVC005 03/02 A2934 RMK AO2 UPB01 P0000 T00280022 TSNO
Temperature: 2.8°C ( 37°F)
Dewpoint: 2.2°C ( 36°F) [RH = 96%]
Pressure (altimeter):29.34 inches Hg ( 993.6 mb)
Winds:from the WSW (250 degrees) at 21 MPH (18 knots; 9.3 m/s)
Visibility: 2.00 sm ( 3.22 km)
Ceiling:500 feet AGL
Clouds: overcast cloud deck at 500 feet AGL
Weather:BR UP (mist, unknown precipitation)
QC Flag:automated observation with no human augmentation
Text:PACD 231153Z AUTO 26017KT 7SM OVC005 03/02 A2933 RMK AO2 SLP934 60000 70008 T00280017 10028 20022 53026 TSNO
Temperature: 2.8°C ( 37°F)
Dewpoint: 1.7°C ( 35°F) [RH = 92%]
Pressure (altimeter):29.33 inches Hg ( 993.3 mb) [Sea level pressure: 993.4 mb]
Winds:from the W (260 degrees) at 20 MPH (17 knots; 8.7 m/s)
Visibility: 7 sm ( 11 km)
Ceiling:500 feet AGL
Clouds: overcast cloud deck at 500 feet AGL
QC Flag:automated observation with no human augmentation
Text:PACD 231143Z AUTO 25018KT 3SM BR OVC005 03/02 A2933 RMK AO2 T00280017 TSNO
Temperature: 2.8°C ( 37°F)
Dewpoint: 1.7°C ( 35°F) [RH = 92%]
Pressure (altimeter):29.33 inches Hg ( 993.3 mb)
Winds:from the WSW (250 degrees) at 21 MPH (18 knots; 9.3 m/s)
Visibility: 3 sm ( 5 km)
Ceiling:500 feet AGL
Clouds: overcast cloud deck at 500 feet AGL
Weather:BR (mist)
QC Flag:automated observation with no human augmentation
Text:PACD 231122Z AUTO 25018KT 2SM BR OVC005 03/02 A2933 RMK AO2 T00280017 TSNO
Temperature: 2.8°C ( 37°F)
Dewpoint: 1.7°C ( 35°F) [RH = 92%]
Pressure (altimeter):29.33 inches Hg ( 993.3 mb)
Winds:from the WSW (250 degrees) at 21 MPH (18 knots; 9.3 m/s)
Visibility: 2.00 sm ( 3.22 km)
Ceiling:500 feet AGL
Clouds: overcast cloud deck at 500 feet AGL
Weather:BR (mist)
QC Flag:automated observation with no human augmentation
Text:PACD 231053Z AUTO 25017KT 4SM BR OVC005 03/02 A2930 RMK AO2 SLP923 T00280017 TSNO
Temperature: 2.8°C ( 37°F)
Dewpoint: 1.7°C ( 35°F) [RH = 92%]
Pressure (altimeter):29.30 inches Hg ( 992.3 mb) [Sea level pressure: 992.3 mb]
Winds:from the WSW (250 degrees) at 20 MPH (17 knots; 8.7 m/s)
Visibility: 4 sm ( 6 km)
Ceiling:500 feet AGL
Clouds: overcast cloud deck at 500 feet AGL
Weather:BR (mist)
QC Flag:automated observation with no human augmentation
Text:PACD 231020Z AUTO 25019KT 3SM BR OVC005 03/02 A2928 RMK AO2 T00280017 TSNO
Temperature: 2.8°C ( 37°F)
Dewpoint: 1.7°C ( 35°F) [RH = 92%]
Pressure (altimeter):29.28 inches Hg ( 991.6 mb)
Winds:from the WSW (250 degrees) at 22 MPH (19 knots; 9.8 m/s)
Visibility: 3 sm ( 5 km)
Ceiling:500 feet AGL
Clouds: overcast cloud deck at 500 feet AGL
Weather:BR (mist)
QC Flag:automated observation with no human augmentation
Text:PACD 231013Z AUTO 25018KT 2 1/2SM BR OVC004 03/02 A2927 RMK AO2 T00280017 TSNO
Temperature: 2.8°C ( 37°F)
Dewpoint: 1.7°C ( 35°F) [RH = 92%]
Pressure (altimeter):29.27 inches Hg ( 991.3 mb)
Winds:from the WSW (250 degrees) at 21 MPH (18 knots; 9.3 m/s)
Visibility: 2.50 sm ( 4.02 km)
Ceiling:400 feet AGL
Clouds: overcast cloud deck at 400 feet AGL
Weather:BR (mist)
QC Flag:automated observation with no human augmentation
Text:PACD 230953Z AUTO 26019KT 8SM OVC004 02/02 A2926 RMK AO2 SLP911 T00220017 TSNO
Temperature: 2.2°C ( 36°F)
Dewpoint: 1.7°C ( 35°F) [RH = 96%]
Pressure (altimeter):29.26 inches Hg ( 990.9 mb) [Sea level pressure: 991.1 mb]
Winds:from the W (260 degrees) at 22 MPH (19 knots; 9.8 m/s)
Visibility: 8 sm ( 13 km)
Ceiling:400 feet AGL
Clouds: overcast cloud deck at 400 feet AGL
QC Flag:automated observation with no human augmentation
Text:PACD 230853Z AUTO 25018KT 7SM BKN008 OVC011 03/02 A2925 RMK AO2 UPB0755E04 SLP907 P0000 60000 T00280017 400500017 53021 TSNO
Temperature: 2.8°C ( 37°F)
Dewpoint: 1.7°C ( 35°F) [RH = 92%]
Pressure (altimeter):29.25 inches Hg ( 990.6 mb) [Sea level pressure: 990.7 mb]
Winds:from the WSW (250 degrees) at 21 MPH (18 knots; 9.3 m/s)
Visibility: 7 sm ( 11 km)
Ceiling:800 feet AGL
Clouds: broken clouds at 800 feet AGL, overcast cloud deck at 1100 feet AGL
QC Flag:automated observation with no human augmentation
Text:PACD 230820Z AUTO 25016KT 3SM BR OVC006 03/02 A2923 RMK AO2 UPB0755E04 P0000 T00280017 TSNO
Temperature: 2.8°C ( 37°F)
Dewpoint: 1.7°C ( 35°F) [RH = 92%]
Pressure (altimeter):29.23 inches Hg ( 989.9 mb)
Winds:from the WSW (250 degrees) at 18 MPH (16 knots; 8.2 m/s)
Visibility: 3 sm ( 5 km)
Ceiling:600 feet AGL
Clouds: overcast cloud deck at 600 feet AGL
Weather:BR (mist)
QC Flag:automated observation with no human augmentation
Text:PACD 230753Z AUTO 26017KT 5SM BR FEW005 BKN011 OVC014 03/02 A2923 RMK AO2 RAB04E14 SLP898 P0000 T00280017 TSNO
Temperature: 2.8°C ( 37°F)
Dewpoint: 1.7°C ( 35°F) [RH = 92%]
Pressure (altimeter):29.23 inches Hg ( 989.9 mb) [Sea level pressure: 989.8 mb]
Winds:from the W (260 degrees) at 20 MPH (17 knots; 8.7 m/s)
Visibility: 5 sm ( 8 km)
Ceiling:1100 feet AGL
Clouds: few clouds at 500 feet AGL, broken clouds at 1100 feet AGL, overcast cloud deck at 1400 feet AGL
Weather:BR (mist)
QC Flag:automated observation with no human augmentation
Text:PACD 230749Z AUTO 25017KT 5SM BR FEW005 BKN011 OVC016 03/02 A2922 RMK AO2 RAB04E14 P0000 TSNO
Temperature: 3.0°C ( 37°F)
Dewpoint: 2.0°C ( 36°F) [RH = 93%]
Pressure (altimeter):29.22 inches Hg ( 989.6 mb)
Winds:from the WSW (250 degrees) at 20 MPH (17 knots; 8.7 m/s)
Visibility: 5 sm ( 8 km)
Ceiling:1100 feet AGL
Clouds: few clouds at 500 feet AGL, broken clouds at 1100 feet AGL, overcast cloud deck at 1600 feet AGL
Weather:BR (mist)
QC Flag:automated observation with no human augmentation
Text:PACD 230737Z AUTO 26017KT 9SM FEW008 SCT012 OVC020 03/02 A2922 RMK AO2 RAB04E14 P0000 T00280017 TSNO
Temperature: 2.8°C ( 37°F)
Dewpoint: 1.7°C ( 35°F) [RH = 92%]
Pressure (altimeter):29.22 inches Hg ( 989.6 mb)
Winds:from the W (260 degrees) at 20 MPH (17 knots; 8.7 m/s)
Visibility: 9 sm ( 14 km)
Ceiling:2000 feet AGL
Clouds: few clouds at 800 feet AGL, scattered clouds at 1200 feet AGL, overcast cloud deck at 2000 feet AGL
QC Flag:automated observation with no human augmentation
Text:PACD 230713Z AUTO 26016KT 7SM -RA SCT008 OVC012 03/02 A2921 RMK AO2 RAB04 P0000 T00280017 TSNO
Temperature: 2.8°C ( 37°F)
Dewpoint: 1.7°C ( 35°F) [RH = 92%]
Pressure (altimeter):29.21 inches Hg ( 989.2 mb)
Winds:from the W (260 degrees) at 18 MPH (16 knots; 8.2 m/s)
Visibility: 7 sm ( 11 km)
Ceiling:1200 feet AGL
Clouds: scattered clouds at 800 feet AGL, overcast cloud deck at 1200 feet AGL
Weather:-RA (light rain)
QC Flag:automated observation with no human augmentation
Text:PACD 230653Z AUTO 26016KT 6SM BR OVC006 03/02 A2919 RMK AO2 RAB08E41 SLP886 P0000 T00280022 TSNO
Temperature: 2.8°C ( 37°F)
Dewpoint: 2.2°C ( 36°F) [RH = 96%]
Pressure (altimeter):29.19 inches Hg ( 988.6 mb) [Sea level pressure: 988.6 mb]
Winds:from the W (260 degrees) at 18 MPH (16 knots; 8.2 m/s)
Visibility: 6 sm ( 10 km)
Ceiling:600 feet AGL
Clouds: overcast cloud deck at 600 feet AGL
Weather:BR (mist)
QC Flag:automated observation with no human augmentation
Text:PACD 230634Z AUTO 26016KT 4SM -RA BR BKN007 OVC011 03/02 A2918 RMK AO2 RAB08 P0000 T00280017 TSNO
Temperature: 2.8°C ( 37°F)
Dewpoint: 1.7°C ( 35°F) [RH = 92%]
Pressure (altimeter):29.18 inches Hg ( 988.2 mb)
Winds:from the W (260 degrees) at 18 MPH (16 knots; 8.2 m/s)
Visibility: 4 sm ( 6 km)
Ceiling:700 feet AGL
Clouds: broken clouds at 700 feet AGL, overcast cloud deck at 1100 feet AGL
Weather:-RA BR (light rain, mist)
QC Flag:automated observation with no human augmentation

TAF for:PACD (Cold Bay Arpt, AK, US) issued at 1137 UTC 23 Mar 2019
Text:PACD 231137Z 2312/2412 28016KT 2SM BR OVC005
Forecast period:1200 to 1500 UTC 23 March 2019
Forecast type:FROM: standard forecast or significant change
Winds:from the W (280 degrees) at 18 MPH (16 knots; 8.2 m/s)
Visibility: 2.00 sm ( 3.22 km)
Ceiling:500 feet AGL
Clouds: overcast cloud deck at 500 feet AGL
Weather:BR (mist)
Text:TEMPO 2312/2315 4SM -RA BR OVC007
Forecast period:1200 to 1500 UTC 23 March 2019
Forecast type:TEMPORARY: The following changes expected for less than half the time period
Visibility: 4 sm ( 6 km)
Ceiling:700 feet AGL
Clouds: overcast cloud deck at 700 feet AGL
Weather:-RA BR (light rain, mist)
Text:FM231500 29010KT P6SM OVC015
Forecast period:1500 UTC 23 March 2019 to 0200 UTC 24 March 2019
Forecast type:FROM: standard forecast or significant change
Winds:from the WNW (290 degrees) at 12 MPH (10 knots; 5.1 m/s)
Visibility:6 or more sm (10+ km)
Ceiling:1500 feet AGL
Clouds: overcast cloud deck at 1500 feet AGL
Text:FM240200 26008KT P6SM OVC035
Forecast period:0200 to 0600 UTC 24 March 2019
Forecast type:FROM: standard forecast or significant change
Winds:from the W (260 degrees) at 9 MPH (8 knots; 4.1 m/s)
Visibility:6 or more sm (10+ km)
Ceiling:3500 feet AGL
Clouds: overcast cloud deck at 3500 feet AGL
Text:FM240600 16011KT P6SM OVC050
Forecast period:0600 to 1200 UTC 24 March 2019
Forecast type:FROM: standard forecast or significant change
Winds:from the SSE (160 degrees) at 13 MPH (11 knots; 5.7 m/s)
Visibility:6 or more sm (10+ km)
Ceiling:5000 feet AGL
Clouds: overcast cloud deck at 5000 feet AGL